sensor_id;sensor_type;location;lat;lon;timestamp;pressure;altitude;pressure_sealevel;temperature;humidity
30554;BME280;17335;50.720;7.452;2023-02-02T00:00:55;99731.13;;;6.28;100.00
30554;BME280;17335;50.720;7.452;2023-02-02T00:03:22;99750.66;;;6.16;100.00
30554;BME280;17335;50.720;7.452;2023-02-02T00:05:51;99750.97;;;6.11;100.00
30554;BME280;17335;50.720;7.452;2023-02-02T00:08:19;99749.47;;;6.20;100.00
30554;BME280;17335;50.720;7.452;2023-02-02T00:10:46;99759.19;;;6.21;100.00
30554;BME280;17335;50.720;7.452;2023-02-02T00:13:13;99755.88;;;6.17;100.00
30554;BME280;17335;50.720;7.452;2023-02-02T00:15:39;99737.53;;;6.13;100.00
30554;BME280;17335;50.720;7.452;2023-02-02T00:18:06;99756.50;;;6.08;100.00
30554;BME280;17335;50.720;7.452;2023-02-02T00:20:32;99755.97;;;6.16;100.00
30554;BME280;17335;50.720;7.452;2023-02-02T00:23:02;99752.88;;;6.09;100.00
30554;BME280;17335;50.720;7.452;2023-02-02T00:25:29;99744.78;;;6.11;100.00
30554;BME280;17335;50.720;7.452;2023-02-02T00:27:56;99748.19;;;6.13;100.00
30554;BME280;17335;50.720;7.452;2023-02-02T00:30:23;99748.19;;;6.13;100.00
30554;BME280;17335;50.720;7.452;2023-02-02T00:32:49;99750.13;;;6.11;100.00
30554;BME280;17335;50.720;7.452;2023-02-02T00:35:18;99766.84;;;6.13;100.00
30554;BME280;17335;50.720;7.452;2023-02-02T00:37:45;99752.44;;;6.15;100.00
30554;BME280;17335;50.720;7.452;2023-02-02T00:40:11;99755.09;;;6.15;100.00
30554;BME280;17335;50.720;7.452;2023-02-02T00:42:38;99763.97;;;6.16;100.00
30554;BME280;17335;50.720;7.452;2023-02-02T00:45:05;99758.94;;;6.11;100.00
30554;BME280;17335;50.720;7.452;2023-02-02T00:47:45;99750.31;;;6.20;100.00
30554;BME280;17335;50.720;7.452;2023-02-02T00:50:18;99746.78;;;6.20;100.00
30554;BME280;17335;50.720;7.452;2023-02-02T00:52:48;99748.72;;;6.18;100.00
30554;BME280;17335;50.720;7.452;2023-02-02T00:55:15;99755.09;;;6.15;100.00
30554;BME280;17335;50.720;7.452;2023-02-02T00:57:42;99751.81;;;6.12;100.00
30554;BME280;17335;50.720;7.452;2023-02-02T01:00:15;99752.03;;;6.09;100.00
30554;BME280;17335;50.720;7.452;2023-02-02T01:02:41;99752.69;;;6.12;100.00
30554;BME280;17335;50.720;7.452;2023-02-02T01:05:09;99751.69;;;6.13;100.00
30554;BME280;17335;50.720;7.452;2023-02-02T01:07:36;99745.22;;;6.17;100.00
30554;BME280;17335;50.720;7.452;2023-02-02T01:10:03;99745.63;;;6.11;100.00
30554;BME280;17335;50.720;7.452;2023-02-02T01:12:30;99741.13;;;6.12;100.00
30554;BME280;17335;50.720;7.452;2023-02-02T01:14:57;99740.41;;;6.10;100.00
30554;BME280;17335;50.720;7.452;2023-02-02T01:17:23;99735.81;;;6.12;100.00
30554;BME280;17335;50.720;7.452;2023-02-02T01:19:50;99732.59;;;6.07;100.00
30554;BME280;17335;50.720;7.452;2023-02-02T01:22:16;99726.22;;;6.09;100.00
30554;BME280;17335;50.720;7.452;2023-02-02T01:24:43;99732.00;;;6.16;100.00
30554;BME280;17335;50.720;7.452;2023-02-02T01:27:09;99731.00;;;6.17;100.00
30554;BME280;17335;50.720;7.452;2023-02-02T01:29:35;99724.72;;;6.18;100.00
30554;BME280;17335;50.720;7.452;2023-02-02T01:32:02;99736.25;;;6.18;100.00
30554;BME280;17335;50.720;7.452;2023-02-02T01:34:29;99737.44;;;6.14;100.00
30554;BME280;17335;50.720;7.452;2023-02-02T01:36:56;99739.88;;;6.05;100.00
30554;BME280;17335;50.720;7.452;2023-02-02T01:39:22;99752.66;;;5.99;100.00
30554;BME280;17335;50.720;7.452;2023-02-02T01:41:49;99761.38;;;6.01;100.00
30554;BME280;17335;50.720;7.452;2023-02-02T01:47:21;99764.28;;;5.98;100.00
30554;BME280;17335;50.720;7.452;2023-02-02T01:49:49;99758.84;;;6.00;100.00
30554;BME280;17335;50.720;7.452;2023-02-02T01:52:17;99758.63;;;6.03;100.00
30554;BME280;17335;50.720;7.452;2023-02-02T01:54:49;99764.56;;;5.94;100.00
30554;BME280;17335;50.720;7.452;2023-02-02T01:57:29;99771.41;;;5.98;100.00
30554;BME280;17335;50.720;7.452;2023-02-02T02:00:00;99765.03;;;6.00;100.00
30554;BME280;17335;50.720;7.452;2023-02-02T02:04:55;99765.66;;;6.04;100.00
30554;BME280;17335;50.720;7.452;2023-02-02T02:07:22;99764.84;;;6.04;100.00
30554;BME280;17335;50.720;7.452;2023-02-02T02:09:48;99774.63;;;6.03;100.00
30554;BME280;17335;50.720;7.452;2023-02-02T02:12:15;99779.09;;;6.03;100.00
30554;BME280;17335;50.720;7.452;2023-02-02T02:14:44;99776.84;;;5.96;100.00
30554;BME280;17335;50.720;7.452;2023-02-02T02:17:40;99776.06;;;5.94;100.00
30554;BME280;17335;50.720;7.452;2023-02-02T02:21:04;99768.50;;;5.88;100.00
30554;BME280;17335;50.720;7.452;2023-02-02T02:32:40;99778.09;;;5.78;100.00
30554;BME280;17335;50.720;7.452;2023-02-02T02:41:12;99788.09;;;5.74;100.00
30554;BME280;17335;50.720;7.452;2023-02-02T02:43:55;99786.72;;;5.81;100.00
30554;BME280;17335;50.720;7.452;2023-02-02T02:46:24;99799.16;;;5.81;100.00
30554;BME280;17335;50.720;7.452;2023-02-02T02:48:52;99787.22;;;5.74;100.00
30554;BME280;17335;50.720;7.452;2023-02-02T02:54:13;99781.38;;;5.81;100.00
30554;BME280;17335;50.720;7.452;2023-02-02T03:02:22;99787.75;;;5.79;100.00
30554;BME280;17335;50.720;7.452;2023-02-02T03:05:03;99786.28;;;5.75;100.00
30554;BME280;17335;50.720;7.452;2023-02-02T03:07:38;99782.63;;;5.76;100.00
30554;BME280;17335;50.720;7.452;2023-02-02T03:10:08;99779.66;;;5.80;100.00
30554;BME280;17335;50.720;7.452;2023-02-02T03:12:46;99783.41;;;5.78;100.00
30554;BME280;17335;50.720;7.452;2023-02-02T03:15:14;99772.53;;;5.81;100.00
30554;BME280;17335;50.720;7.452;2023-02-02T03:17:42;99771.88;;;5.77;100.00
30554;BME280;17335;50.720;7.452;2023-02-02T03:20:11;99778.94;;;5.78;100.00
30554;BME280;17335;50.720;7.452;2023-02-02T03:22:38;99775.63;;;5.75;100.00
30554;BME280;17335;50.720;7.452;2023-02-02T03:25:05;99772.53;;;5.81;100.00
30554;BME280;17335;50.720;7.452;2023-02-02T03:27:32;99771.69;;;5.80;100.00
30554;BME280;17335;50.720;7.452;2023-02-02T03:29:59;99779.66;;;5.80;100.00
30554;BME280;17335;50.720;7.452;2023-02-02T03:32:25;99778.81;;;5.80;100.00
30554;BME280;17335;50.720;7.452;2023-02-02T03:34:52;99777.44;;;5.87;100.00
30554;BME280;17335;50.720;7.452;2023-02-02T03:37:18;99779.25;;;5.87;100.00
30554;BME280;17335;50.720;7.452;2023-02-02T03:39:44;99777.56;;;5.86;100.00
30554;BME280;17335;50.720;7.452;2023-02-02T03:42:11;99780.50;;;5.81;100.00
30554;BME280;17335;50.720;7.452;2023-02-02T03:44:37;99785.84;;;5.81;100.00
30554;BME280;17335;50.720;7.452;2023-02-02T03:47:04;99782.22;;;5.82;100.00
30554;BME280;17335;50.720;7.452;2023-02-02T03:49:30;99781.38;;;5.81;100.00
30554;BME280;17335;50.720;7.452;2023-02-02T03:51:57;99780.31;;;5.84;100.00
30554;BME280;17335;50.720;7.452;2023-02-02T03:54:24;99785.75;;;5.82;100.00
30554;BME280;17335;50.720;7.452;2023-02-02T03:56:50;99784.16;;;5.80;100.00
30554;BME280;17335;50.720;7.452;2023-02-02T03:59:16;99791.94;;;5.83;100.00
30554;BME280;17335;50.720;7.452;2023-02-02T04:01:43;99793.53;;;5.86;100.00
30554;BME280;17335;50.720;7.452;2023-02-02T04:04:09;99786.38;;;5.86;100.00
30554;BME280;17335;50.720;7.452;2023-02-02T04:06:35;99800.03;;;5.81;100.00
30554;BME280;17335;50.720;7.452;2023-02-02T04:09:02;99801.44;;;5.87;100.00
30554;BME280;17335;50.720;7.452;2023-02-02T04:11:28;99799.16;;;5.81;100.00
30554;BME280;17335;50.720;7.452;2023-02-02T04:13:55;99805.03;;;5.86;100.00
30554;BME280;17335;50.720;7.452;2023-02-02T04:16:22;99799.28;;;5.79;100.00
30554;BME280;17335;50.720;7.452;2023-02-02T04:18:48;99806.31;;;5.80;100.00
30554;BME280;17335;50.720;7.452;2023-02-02T04:21:15;99809.06;;;5.79;100.00
30554;BME280;17335;50.720;7.452;2023-02-02T04:23:41;99802.81;;;5.80;100.00
30554;BME280;17335;50.720;7.452;2023-02-02T04:26:07;99803.94;;;5.76;100.00
30554;BME280;17335;50.720;7.452;2023-02-02T04:28:34;99812.28;;;5.84;100.00
30554;BME280;17335;50.720;7.452;2023-02-02T04:31:01;99811.53;;;5.82;100.00
30554;BME280;17335;50.720;7.452;2023-02-02T04:33:28;99805.28;;;5.83;100.00
30554;BME280;17335;50.720;7.452;2023-02-02T04:35:54;99817.72;;;5.82;100.00
30554;BME280;17335;50.720;7.452;2023-02-02T04:38:21;99820.19;;;5.86;100.00
30554;BME280;17335;50.720;7.452;2023-02-02T04:40:47;99821.56;;;5.78;100.00
30554;BME280;17335;50.720;7.452;2023-02-02T04:43:14;99813.16;;;5.85;100.00
30554;BME280;17335;50.720;7.452;2023-02-02T04:45:41;99819.72;;;5.79;100.00
30554;BME280;17335;50.720;7.452;2023-02-02T04:48:08;99819.34;;;5.85;100.00
30554;BME280;17335;50.720;7.452;2023-02-02T04:50:35;99821.44;;;5.80;100.00
30554;BME280;17335;50.720;7.452;2023-02-02T04:53:02;99816.88;;;5.82;100.00
30554;BME280;17335;50.720;7.452;2023-02-02T04:55:29;99825.50;;;5.73;100.00
30554;BME280;17335;50.720;7.452;2023-02-02T04:57:55;99821.25;;;5.83;100.00
30554;BME280;17335;50.720;7.452;2023-02-02T05:00:21;99824.66;;;5.85;100.00
30554;BME280;17335;50.720;7.452;2023-02-02T05:02:48;99830.38;;;5.79;100.00
30554;BME280;17335;50.720;7.452;2023-02-02T05:05:15;99821.25;;;5.83;100.00
30554;BME280;17335;50.720;7.452;2023-02-02T05:07:41;99820.59;;;5.79;100.00
30554;BME280;17335;50.720;7.452;2023-02-02T05:10:08;99831.38;;;5.78;100.00
30554;BME280;17335;50.720;7.452;2023-02-02T05:12:35;99834.97;;;5.77;100.00
30554;BME280;17335;50.720;7.452;2023-02-02T05:15:02;99833.25;;;5.76;100.00
30554;BME280;17335;50.720;7.452;2023-02-02T05:17:31;99836.78;;;5.76;100.00
30554;BME280;17335;50.720;7.452;2023-02-02T05:19:57;99832.84;;;5.82;100.00
30554;BME280;17335;50.720;7.452;2023-02-02T05:22:23;99840.66;;;5.85;100.00
30554;BME280;17335;50.720;7.452;2023-02-02T05:24:50;99840.00;;;5.81;100.00
30554;BME280;17335;50.720;7.452;2023-02-02T05:27:16;99842.88;;;5.78;100.00
30554;BME280;17335;50.720;7.452;2023-02-02T05:29:43;99840.41;;;5.75;100.00
30554;BME280;17335;50.720;7.452;2023-02-02T05:32:09;99836.88;;;5.75;100.00
30554;BME280;17335;50.720;7.452;2023-02-02T05:34:36;99833.81;;;5.81;100.00
30554;BME280;17335;50.720;7.452;2023-02-02T05:37:02;99844.59;;;5.79;100.00
30554;BME280;17335;50.720;7.452;2023-02-02T05:39:28;99839.13;;;5.81;100.00
30554;BME280;17335;50.720;7.452;2023-02-02T05:41:55;99849.91;;;5.79;100.00
30554;BME280;17335;50.720;7.452;2023-02-02T05:44:21;99840.50;;;5.74;100.00
30554;BME280;17335;50.720;7.452;2023-02-02T05:46:48;99850.00;;;5.78;100.00
30554;BME280;17335;50.720;7.452;2023-02-02T05:49:14;99850.00;;;5.78;100.00
30554;BME280;17335;50.720;7.452;2023-02-02T05:51:47;99852.03;;;5.74;100.00
30554;BME280;17335;50.720;7.452;2023-02-02T05:54:15;99843.72;;;5.79;100.00
30554;BME280;17335;50.720;7.452;2023-02-02T05:56:46;99850.13;;;5.76;100.00
30554;BME280;17335;50.720;7.452;2023-02-02T05:59:13;99843.16;;;5.74;100.00
30554;BME280;17335;50.720;7.452;2023-02-02T06:01:40;99835.72;;;5.79;100.00
30554;BME280;17335;50.720;7.452;2023-02-02T06:04:06;99841.25;;;5.76;100.00
30554;BME280;17335;50.720;7.452;2023-02-02T06:06:33;99834.22;;;5.75;100.00
30554;BME280;17335;50.720;7.452;2023-02-02T06:09:01;99843.63;;;5.80;100.00
30554;BME280;17335;50.720;7.452;2023-02-02T06:11:27;99850.00;;;5.78;100.00
30554;BME280;17335;50.720;7.452;2023-02-02T06:13:54;99844.88;;;5.75;100.00
30554;BME280;17335;50.720;7.452;2023-02-02T06:16:21;99845.97;;;5.85;100.00
30554;BME280;17335;50.720;7.452;2023-02-02T06:18:47;99848.94;;;5.80;100.00
30554;BME280;17335;50.720;7.452;2023-02-02T06:21:13;99840.66;;;5.85;100.00
30554;BME280;17335;50.720;7.452;2023-02-02T06:23:40;99856.94;;;5.80;100.00
30554;BME280;17335;50.720;7.452;2023-02-02T06:26:15;99848.84;;;5.82;100.00
30554;BME280;17335;50.720;7.452;2023-02-02T06:28:42;99854.16;;;5.82;100.00
30554;BME280;17335;50.720;7.452;2023-02-02T06:31:13;99854.56;;;5.76;100.00
30554;BME280;17335;50.720;7.452;2023-02-02T06:33:40;99855.13;;;5.81;100.00
30554;BME280;17335;50.720;7.452;2023-02-02T06:36:07;99854.16;;;5.82;100.00
30554;BME280;17335;50.720;7.452;2023-02-02T06:38:33;99872.53;;;5.87;100.00
30554;BME280;17335;50.720;7.452;2023-02-02T06:41:01;99880.81;;;5.82;100.00
30554;BME280;17335;50.720;7.452;2023-02-02T06:43:28;99871.78;;;5.85;100.00
30554;BME280;17335;50.720;7.452;2023-02-02T06:45:57;99875.59;;;5.80;100.00
30554;BME280;17335;50.720;7.452;2023-02-02T06:48:25;99876.03;;;5.87;100.00
30554;BME280;17335;50.720;7.452;2023-02-02T06:50:52;99872.63;;;5.85;100.00
30554;BME280;17335;50.720;7.452;2023-02-02T06:53:19;99875.28;;;5.85;100.00
30554;BME280;17335;50.720;7.452;2023-02-02T06:55:53;99871.09;;;5.81;100.00
30554;BME280;17335;50.720;7.452;2023-02-02T06:58:19;99883.09;;;5.88;100.00
30554;BME280;17335;50.720;7.452;2023-02-02T07:00:46;99876.22;;;5.84;100.00
30554;BME280;17335;50.720;7.452;2023-02-02T07:03:14;99888.00;;;5.94;100.00
30554;BME280;17335;50.720;7.452;2023-02-02T07:05:41;99875.44;;;5.96;100.00
30554;BME280;17335;50.720;7.452;2023-02-02T07:08:08;99867.44;;;5.96;100.00
30554;BME280;17335;50.720;7.452;2023-02-02T07:10:37;99862.03;;;5.98;100.00
30554;BME280;17335;50.720;7.452;2023-02-02T07:13:23;99863.94;;;5.96;100.00
30554;BME280;17335;50.720;7.452;2023-02-02T07:15:50;99865.56;;;5.98;100.00
30554;BME280;17335;50.720;7.452;2023-02-02T07:18:16;99866.78;;;5.93;100.00
30554;BME280;17335;50.720;7.452;2023-02-02T07:20:43;99871.34;;;5.91;100.00
30554;BME280;17335;50.720;7.452;2023-02-02T07:23:09;99878.88;;;5.98;100.00
30554;BME280;17335;50.720;7.452;2023-02-02T07:25:36;99876.31;;;5.97;100.00
30554;BME280;17335;50.720;7.452;2023-02-02T07:28:02;99880.78;;;5.96;100.00
30554;BME280;17335;50.720;7.452;2023-02-02T07:30:29;99878.31;;;5.93;100.00
30554;BME280;17335;50.720;7.452;2023-02-02T07:32:55;99881.66;;;5.97;100.00
30554;BME280;17335;50.720;7.452;2023-02-02T07:35:22;99882.50;;;5.97;100.00
30554;BME280;17335;50.720;7.452;2023-02-02T07:37:51;99890.94;;;6.04;100.00
30554;BME280;17335;50.720;7.452;2023-02-02T07:40:18;99891.44;;;5.96;100.00
30554;BME280;17335;50.720;7.452;2023-02-02T07:42:45;99894.66;;;6.01;100.00
30554;BME280;17335;50.720;7.452;2023-02-02T07:45:13;99888.19;;;6.06;100.00
30554;BME280;17335;50.720;7.452;2023-02-02T07:47:59;99899.34;;;5.98;100.00
30554;BME280;17335;50.720;7.452;2023-02-02T07:50:27;99883.69;;;6.06;100.00
30554;BME280;17335;50.720;7.452;2023-02-02T07:52:54;99902.34;;;6.06;100.00
30554;BME280;17335;50.720;7.452;2023-02-02T07:55:21;99887.63;;;6.00;100.00
30554;BME280;17335;50.720;7.452;2023-02-02T07:57:47;99896.38;;;6.03;100.00
30554;BME280;17335;50.720;7.452;2023-02-02T08:00:16;99899.78;;;6.05;100.00
30554;BME280;17335;50.720;7.452;2023-02-02T08:02:43;99905.22;;;6.03;100.00
30554;BME280;17335;50.720;7.452;2023-02-02T08:05:09;99898.28;;;6.00;100.00
30554;BME280;17335;50.720;7.452;2023-02-02T08:07:36;99897.03;;;6.06;100.00
30554;BME280;17335;50.720;7.452;2023-02-02T08:10:03;99894.34;;;6.06;100.00
30554;BME280;17335;50.720;7.452;2023-02-02T08:12:30;99899.59;;;6.08;100.00
30554;BME280;17335;50.720;7.452;2023-02-02T08:14:56;99903.63;;;6.00;100.00
30554;BME280;17335;50.720;7.452;2023-02-02T08:17:24;99904.66;;;5.98;100.00
30554;BME280;17335;50.720;7.452;2023-02-02T08:19:50;99903.41;;;6.04;100.00
30554;BME280;17335;50.720;7.452;2023-02-02T08:22:17;99917.50;;;6.06;100.00
30554;BME280;17335;50.720;7.452;2023-02-02T08:24:45;99908.31;;;6.10;100.00
30554;BME280;17335;50.720;7.452;2023-02-02T08:27:12;99915.38;;;6.11;100.00
30554;BME280;17335;50.720;7.452;2023-02-02T08:29:38;99912.81;;;6.09;100.00
30554;BME280;17335;50.720;7.452;2023-02-02T08:32:05;99918.88;;;6.11;100.00
30554;BME280;17335;50.720;7.452;2023-02-02T08:34:31;99919.19;;;6.07;100.00
30554;BME280;17335;50.720;7.452;2023-02-02T08:37:02;99922.06;;;6.04;100.00
30554;BME280;17335;50.720;7.452;2023-02-02T08:39:29;99921.84;;;6.07;100.00
30554;BME280;17335;50.720;7.452;2023-02-02T08:41:55;99924.50;;;6.07;100.00
30554;BME280;17335;50.720;7.452;2023-02-02T08:44:22;99929.97;;;6.05;100.00
30554;BME280;17335;50.720;7.452;2023-02-02T08:46:51;99942.75;;;6.00;100.00
30554;BME280;17335;50.720;7.452;2023-02-02T08:49:18;99932.84;;;6.02;100.00
30554;BME280;17335;50.720;7.452;2023-02-02T08:51:44;99936.06;;;6.07;100.00
30554;BME280;17335;50.720;7.452;2023-02-02T08:54:11;99926.25;;;6.08;100.00
30554;BME280;17335;50.720;7.452;2023-02-02T08:56:38;99939.00;;;6.03;100.00
30554;BME280;17335;50.720;7.452;2023-02-02T08:59:04;99945.97;;;6.05;100.00
30554;BME280;17335;50.720;7.452;2023-02-02T09:01:32;99940.50;;;6.07;100.00
30554;BME280;17335;50.720;7.452;2023-02-02T09:04:01;99940.50;;;6.07;100.00
30554;BME280;17335;50.720;7.452;2023-02-02T09:06:39;99946.81;;;6.06;100.00
30554;BME280;17335;50.720;7.452;2023-02-02T09:09:08;99944.16;;;6.06;100.00
30554;BME280;17335;50.720;7.452;2023-02-02T09:11:35;99958.22;;;6.08;100.00
30554;BME280;17335;50.720;7.452;2023-02-02T09:14:02;99949.28;;;6.09;100.00
30554;BME280;17335;50.720;7.452;2023-02-02T09:16:28;99956.50;;;6.07;100.00
30554;BME280;17335;50.720;7.452;2023-02-02T09:18:55;99950.88;;;6.11;100.00
30554;BME280;17335;50.720;7.452;2023-02-02T09:21:22;99964.50;;;6.07;100.00
30554;BME280;17335;50.720;7.452;2023-02-02T09:23:49;99962.81;;;6.06;100.00
30554;BME280;17335;50.720;7.452;2023-02-02T09:26:17;99967.16;;;6.07;100.00
30554;BME280;17335;50.720;7.452;2023-02-02T09:28:46;99971.09;;;6.01;100.00
30554;BME280;17335;50.720;7.452;2023-02-02T09:31:14;99986.25;;;6.00;100.00
30554;BME280;17335;50.720;7.452;2023-02-02T09:33:40;99986.78;;;6.06;100.00
30554;BME280;17335;50.720;7.452;2023-02-02T09:38:34;99996.00;;;6.14;100.00
30554;BME280;17335;50.720;7.452;2023-02-02T09:41:14;100004.94;;;6.13;100.00
30554;BME280;17335;50.720;7.452;2023-02-02T09:47:28;100005.50;;;6.18;100.00
30554;BME280;17335;50.720;7.452;2023-02-02T09:50:17;100008.25;;;6.17;100.00
30554;BME280;17335;50.720;7.452;2023-02-02T09:52:56;100004.94;;;6.13;100.00
30554;BME280;17335;50.720;7.452;2023-02-02T09:58:17;100010.91;;;6.17;100.00
30554;BME280;17335;50.720;7.452;2023-02-02T10:01:10;100014.16;;;6.22;100.00
30554;BME280;17335;50.720;7.452;2023-02-02T10:06:38;100024.41;;;6.28;100.00
30554;BME280;17335;50.720;7.452;2023-02-02T10:14:39;100034.47;;;6.37;100.00
30554;BME280;17335;50.720;7.452;2023-02-02T10:17:25;100025.72;;;6.35;100.00
30554;BME280;17335;50.720;7.452;2023-02-02T10:20:02;100051.63;;;6.33;100.00
30554;BME280;17335;50.720;7.452;2023-02-02T10:22:32;100035.34;;;6.38;100.00
30554;BME280;17335;50.720;7.452;2023-02-02T10:24:59;100039.69;;;6.39;100.00
30554;BME280;17335;50.720;7.452;2023-02-02T10:27:39;100053.31;;;6.49;100.00
30554;BME280;17335;50.720;7.452;2023-02-02T10:30:19;100049.69;;;6.50;100.00
30554;BME280;17335;50.720;7.452;2023-02-02T10:33:35;100055.41;;;6.44;100.00
30554;BME280;17335;50.720;7.452;2023-02-02T10:36:34;100050.84;;;6.46;100.00
30554;BME280;17335;50.720;7.452;2023-02-02T10:39:14;100058.63;;;6.49;100.00
30554;BME280;17335;50.720;7.452;2023-02-02T10:41:58;100055.22;;;6.47;100.00
30554;BME280;17335;50.720;7.452;2023-02-02T10:44:47;100036.22;;;6.51;100.00
30554;BME280;17335;50.720;7.452;2023-02-02T10:47:34;100048.16;;;6.46;100.00
30554;BME280;17335;50.720;7.452;2023-02-02T10:52:41;100062.91;;;6.51;100.00
30554;BME280;17335;50.720;7.452;2023-02-02T11:00:32;100073.78;;;6.48;100.00
30554;BME280;17335;50.720;7.452;2023-02-02T11:03:01;100075.69;;;6.46;100.00
30554;BME280;17335;50.720;7.452;2023-02-02T11:05:30;100077.50;;;6.46;100.00
30554;BME280;17335;50.720;7.452;2023-02-02T11:08:24;100079.41;;;6.44;100.00
30554;BME280;17335;50.720;7.452;2023-02-02T11:10:54;100074.84;;;6.46;100.00
30554;BME280;17335;50.720;7.452;2023-02-02T11:13:29;100067.81;;;6.45;100.00
30554;BME280;17335;50.720;7.452;2023-02-02T11:18:43;100057.97;;;6.45;100.00
30554;BME280;17335;50.720;7.452;2023-02-02T11:21:27;100064.25;;;6.44;100.00
30554;BME280;17335;50.720;7.452;2023-02-02T11:24:02;100055.03;;;6.50;100.00
30554;BME280;17335;50.720;7.452;2023-02-02T11:26:49;100062.06;;;6.51;100.00
30554;BME280;17335;50.720;7.452;2023-02-02T11:29:21;100063.56;;;6.55;100.00
30554;BME280;17335;50.720;7.452;2023-02-02T11:31:50;100073.19;;;6.57;100.00
30554;BME280;17335;50.720;7.452;2023-02-02T11:34:26;100072.44;;;6.55;100.00
30554;BME280;17335;50.720;7.452;2023-02-02T11:37:13;100070.91;;;6.51;100.00
30554;BME280;17335;50.720;7.452;2023-02-02T11:39:41;100067.84;;;6.57;100.00
30554;BME280;17335;50.720;7.452;2023-02-02T11:42:16;100070.41;;;6.59;100.00
30554;BME280;17335;50.720;7.452;2023-02-02T11:44:45;100074.47;;;6.65;100.00
30554;BME280;17335;50.720;7.452;2023-02-02T11:47:23;100073.81;;;6.61;100.00
30554;BME280;17335;50.720;7.452;2023-02-02T11:49:52;100062.53;;;6.70;100.00
30554;BME280;17335;50.720;7.452;2023-02-02T11:52:25;100063.41;;;6.71;100.00
30554;BME280;17335;50.720;7.452;2023-02-02T11:54:55;100070.97;;;6.77;100.00
30554;BME280;17335;50.720;7.452;2023-02-02T11:57:24;100073.00;;;6.73;100.00
30554;BME280;17335;50.720;7.452;2023-02-02T12:02:45;100060.41;;;6.75;100.00
30554;BME280;17335;50.720;7.452;2023-02-02T12:07:48;100052.75;;;6.84;100.00
30554;BME280;17335;50.720;7.452;2023-02-02T12:10:27;100043.34;;;6.78;100.00
30554;BME280;17335;50.720;7.452;2023-02-02T12:13:07;100054.13;;;6.76;100.00
30554;BME280;17335;50.720;7.452;2023-02-02T12:15:50;100046.88;;;6.79;100.00
30554;BME280;17335;50.720;7.452;2023-02-02T12:18:47;100057.63;;;6.77;100.00
30554;BME280;17335;50.720;7.452;2023-02-02T12:21:36;100066.19;;;6.82;100.00
30554;BME280;17335;50.720;7.452;2023-02-02T12:25:02;100055.41;;;6.84;100.00
30554;BME280;17335;50.720;7.452;2023-02-02T12:29:52;100039.84;;;6.90;100.00
30554;BME280;17335;50.720;7.452;2023-02-02T12:32:33;100049.38;;;6.94;100.00
30554;BME280;17335;50.720;7.452;2023-02-02T12:38:23;100039.84;;;6.90;100.00
30554;BME280;17335;50.720;7.452;2023-02-02T12:43:40;100030.47;;;6.98;100.00
30554;BME280;17335;50.720;7.452;2023-02-02T12:46:15;100041.47;;;6.93;100.00
30554;BME280;17335;50.720;7.452;2023-02-02T12:49:04;100037.41;;;7.00;100.00
30554;BME280;17335;50.720;7.452;2023-02-02T12:51:49;100032.81;;;7.02;100.00
30554;BME280;17335;50.720;7.452;2023-02-02T12:54:54;100039.34;;;6.98;100.00
30554;BME280;17335;50.720;7.452;2023-02-02T13:00:46;100042.66;;;7.02;100.00
30554;BME280;17335;50.720;7.452;2023-02-02T13:03:48;100045.31;;;7.02;100.00
30554;BME280;17335;50.720;7.452;2023-02-02T13:14:17;100065.19;;;7.10;100.00
30554;BME280;17335;50.720;7.452;2023-02-02T13:16:50;100043.84;;;7.10;100.00
30554;BME280;17335;50.720;7.452;2023-02-02T13:19:38;100052.50;;;7.14;100.00
30554;BME280;17335;50.720;7.452;2023-02-02T13:22:09;100054.31;;;7.13;100.00
30554;BME280;17335;50.720;7.452;2023-02-02T13:24:41;100050.25;;;7.21;100.00
30554;BME280;17335;50.720;7.452;2023-02-02T13:27:13;100056.75;;;7.17;100.00
30554;BME280;17335;50.720;7.452;2023-02-02T13:40:28;100068.31;;;7.17;100.00
30554;BME280;17335;50.720;7.452;2023-02-02T13:43:03;100069.16;;;7.18;100.00
30554;BME280;17335;50.720;7.452;2023-02-02T13:48:24;100074.25;;;7.08;100.00
30554;BME280;17335;50.720;7.452;2023-02-02T14:02:34;100080.16;;;7.26;100.00
30554;BME280;17335;50.720;7.452;2023-02-02T14:05:06;100066.06;;;7.24;100.00
30554;BME280;17335;50.720;7.452;2023-02-02T14:07:42;100063.81;;;7.18;100.00
30554;BME280;17335;50.720;7.452;2023-02-02T14:10:36;100086.56;;;7.23;100.00
30554;BME280;17335;50.720;7.452;2023-02-02T14:13:07;100074.19;;;7.22;100.00
30554;BME280;17335;50.720;7.452;2023-02-02T14:15:57;100074.19;;;7.22;100.00
30554;BME280;17335;50.720;7.452;2023-02-02T14:26:44;100087.19;;;7.14;100.00
30554;BME280;17335;50.720;7.452;2023-02-02T14:34:46;100093.38;;;7.14;100.00
30554;BME280;17335;50.720;7.452;2023-02-02T14:45:46;100080.78;;;7.17;100.00
30554;BME280;17335;50.720;7.452;2023-02-02T14:48:32;100080.25;;;7.11;100.00
30554;BME280;17335;50.720;7.452;2023-02-02T14:51:00;100076.41;;;7.16;100.00
30554;BME280;17335;50.720;7.452;2023-02-02T14:53:30;100085.47;;;7.13;100.00
30554;BME280;17335;50.720;7.452;2023-02-02T14:56:11;100089.03;;;7.13;100.00
30554;BME280;17335;50.720;7.452;2023-02-02T14:58:42;100091.25;;;7.20;100.00
30554;BME280;17335;50.720;7.452;2023-02-02T15:01:21;100087.44;;;7.24;100.00
30554;BME280;17335;50.720;7.452;2023-02-02T15:06:41;100107.63;;;7.28;100.00
30554;BME280;17335;50.720;7.452;2023-02-02T15:20:36;100103.03;;;7.30;100.00
30554;BME280;17335;50.720;7.452;2023-02-02T15:25:55;100094.81;;;7.33;100.00
30554;BME280;17335;50.720;7.452;2023-02-02T15:33:38;100112.00;;;7.42;100.00
30554;BME280;17335;50.720;7.452;2023-02-02T15:36:11;100105.63;;;7.44;100.00
30554;BME280;17335;50.720;7.452;2023-02-02T15:38:40;100113.84;;;7.41;100.00
30554;BME280;17335;50.720;7.452;2023-02-02T15:41:23;100114.56;;;7.43;100.00
30554;BME280;17335;50.720;7.452;2023-02-02T15:43:50;100120.88;;;7.42;100.00
30554;BME280;17335;50.720;7.452;2023-02-02T15:46:23;100120.34;;;7.37;100.00
30554;BME280;17335;50.720;7.452;2023-02-02T15:52:00;100133.59;;;7.39;100.00